Time,TemperatureF,DewpointF,PressureIn,WindDirection,WindDirectionDegrees,WindSpeedMPH,WindSpeedGustMPH,Humidity,HourlyPrecipIn,Conditions,Clouds,dailyrainin,SoftwareType,DateUTC
2013-10-03 00:00:00,75.1,68.8,30.07,NE,53,0.0,0.7,81,0.00,,---,0.00,VWS V14.01,2013-10-03 04:00:00,
2013-10-03 00:01:00,74.8,68.6,30.07,NE,53,0.0,0.0,81,0.00,,---,0.00,VWS V14.01,2013-10-03 04:01:00,
2013-10-03 00:02:00,76.4,71.3,30.06,ENE,69,0.0,1.1,84,0.00,,---,0.00,VWS V14.01,2013-10-03 04:02:00,
2013-10-03 00:03:00,76.3,71.2,30.06,ENE,69,0.0,1.1,84,0.00,,---,0.00,VWS V14.01,2013-10-03 04:03:00,
2013-10-03 00:04:00,76.6,71.6,30.06,NE,42,0.0,1.4,84,0.00,,---,0.00,VWS V14.01,2013-10-03 04:04:00,
2013-10-03 00:05:00,76.6,71.6,30.06,NE,42,0.0,1.4,84,0.00,,---,0.00,VWS V14.01,2013-10-03 04:05:00,
2013-10-03 00:06:00,74.9,68.9,30.07,NE,53,0.0,0.0,82,0.00,,---,0.00,VWS V14.01,2013-10-03 04:06:00,
2013-10-03 00:11:00,74.6,68.8,30.07,NNE,21,0.0,0.0,82,0.00,,---,0.00,VWS V14.01,2013-10-03 04:11:00,
2013-10-03 00:16:00,74.4,68.7,30.06,NNE,21,0.0,0.0,82,0.00,,---,0.00,VWS V14.01,2013-10-03 04:16:00,
2013-10-03 00:21:00,74.6,69.1,30.07,NNE,21,0.0,0.0,83,0.00,,---,0.00,VWS V14.01,2013-10-03 04:21:00,
2013-10-03 00:26:00,74.5,69.1,30.06,NNE,21,0.0,0.0,83,0.00,,---,0.00,VWS V14.01,2013-10-03 04:26:00,
2013-10-03 00:31:00,73.7,68.5,30.06,NNE,21,0.0,0.0,84,0.00,,---,0.00,VWS V14.01,2013-10-03 04:31:00,
2013-10-03 00:36:00,74.1,69.0,30.06,NNE,21,0.0,0.0,84,0.00,,---,0.00,VWS V14.01,2013-10-03 04:36:00,
2013-10-03 00:41:00,73.0,68.1,30.06,NNE,21,0.0,0.0,84,0.00,,---,0.00,VWS V14.01,2013-10-03 04:41:00,
2013-10-03 00:46:00,74.1,69.2,30.06,NE,56,1.0,2.4,85,0.00,,---,0.00,VWS V14.01,2013-10-03 04:46:00,
2013-10-03 00:51:00,73.9,69.1,30.06,NE,46,0.4,1.2,85,0.00,,---,0.00,VWS V14.01,2013-10-03 04:51:00,
2013-10-03 00:56:00,73.5,68.8,30.06,NE,46,0.0,0.0,85,0.00,,---,0.00,VWS V14.01,2013-10-03 04:56:00,
2013-10-03 01:01:00,73.8,69.2,30.06,NNE,31,0.0,0.2,86,0.00,,---,0.00,VWS V14.01,2013-10-03 05:01:00,
2013-10-03 01:06:00,73.1,68.6,30.06,NNE,31,0.0,0.0,86,0.00,,---,0.00,VWS V14.01,2013-10-03 05:06:00,
2013-10-03 01:11:00,72.9,68.4,30.06,NE,46,0.5,0.9,86,0.00,,---,0.00,VWS V14.01,2013-10-03 05:11:00,
2013-10-03 01:16:00,73.5,69.1,30.06,ENE,75,0.9,0.9,86,0.00,,---,0.00,VWS V14.01,2013-10-03 05:16:00,
2013-10-03 01:21:00,72.5,68.2,30.06,NE,55,0.7,2.4,86,0.00,,---,0.00,VWS V14.01,2013-10-03 05:21:00,
2013-10-03 01:26:00,73.8,69.6,30.06,NE,45,0.2,1.1,87,0.00,,---,0.00,VWS V14.01,2013-10-03 05:26:00,
2013-10-03 01:31:00,73.5,69.3,30.06,NE,39,0.0,0.0,87,0.00,,---,0.00,VWS V14.01,2013-10-03 05:31:00,
2013-10-03 01:36:00,73.3,69.1,30.06,NE,39,0.0,0.0,87,0.00,,---,0.00,VWS V14.01,2013-10-03 05:36:00,
2013-10-03 01:41:00,73.4,69.4,30.06,NE,39,0.0,0.0,87,0.00,,---,0.00,VWS V14.01,2013-10-03 05:41:00,
2013-10-03 01:46:00,73.2,69.2,30.06,NE,39,0.0,0.0,87,0.00,,---,0.00,VWS V14.01,2013-10-03 05:46:00,
2013-10-03 01:51:00,73.0,69.1,30.06,NE,39,0.0,0.0,88,0.00,,---,0.00,VWS V14.01,2013-10-03 05:51:00,
2013-10-03 01:56:00,73.3,69.5,30.06,NE,39,0.0,0.0,88,0.00,,---,0.00,VWS V14.01,2013-10-03 05:56:00,
2013-10-03 02:01:00,73.1,69.4,30.06,NE,39,0.0,0.0,88,0.00,,---,0.00,VWS V14.01,2013-10-03 06:01:00,
2013-10-03 02:06:00,72.2,68.7,30.05,NE,39,0.0,0.0,89,0.00,,---,0.00,VWS V14.01,2013-10-03 06:06:00,
2013-10-03 02:11:00,72.5,69.1,30.05,NE,39,0.0,0.0,89,0.00,,---,0.00,VWS V14.01,2013-10-03 06:11:00,
2013-10-03 02:16:00,72.5,69.2,30.05,NE,39,0.0,0.0,89,0.00,,---,0.00,VWS V14.01,2013-10-03 06:16:00,
2013-10-03 02:21:00,72.1,68.9,30.05,NE,39,0.0,0.0,90,0.00,,---,0.00,VWS V14.01,2013-10-03 06:21:00,
2013-10-03 02:26:00,71.3,68.3,30.05,NE,39,0.0,0.0,90,0.00,,---,0.00,VWS V14.01,2013-10-03 06:26:00,
2013-10-03 02:31:00,72.5,69.6,30.05,NE,39,0.0,0.0,90,0.00,,---,0.00,VWS V14.01,2013-10-03 06:31:00,
2013-10-03 02:36:00,72.6,69.7,30.05,NE,39,0.0,0.0,91,0.00,,---,0.00,VWS V14.01,2013-10-03 06:36:00,
2013-10-03 02:41:00,72.6,69.9,30.04,NE,39,0.0,0.0,91,0.00,,---,0.00,VWS V14.01,2013-10-03 06:41:00,
2013-10-03 02:46:00,72.6,70.1,30.04,NE,39,0.0,0.0,92,0.00,,---,0.00,VWS V14.01,2013-10-03 06:46:00,
2013-10-03 02:51:00,72.5,70.0,30.04,NE,39,0.0,0.0,92,0.00,,---,0.00,VWS V14.01,2013-10-03 06:51:00,
2013-10-03 02:56:00,72.5,70.1,30.04,NE,39,0.0,0.0,92,0.00,,---,0.00,VWS V14.01,2013-10-03 06:56:00,
2013-10-03 03:01:00,71.6,69.2,30.03,NE,39,0.0,0.0,92,0.00,,---,0.00,VWS V14.01,2013-10-03 07:01:00,
2013-10-03 03:06:00,72.2,69.9,30.03,NE,39,0.0,0.0,92,0.00,,---,0.00,VWS V14.01,2013-10-03 07:06:00,
2013-10-03 03:11:00,71.0,68.8,30.03,NE,39,0.0,0.0,93,0.00,,---,0.00,VWS V14.01,2013-10-03 07:11:00,
2013-10-03 03:16:00,72.0,70.0,30.03,NE,39,0.0,0.0,94,0.00,,---,0.00,VWS V14.01,2013-10-03 07:16:00,
2013-10-03 03:21:00,71.7,69.8,30.03,NE,39,0.0,0.0,94,0.00,,---,0.00,VWS V14.01,2013-10-03 07:21:00,
2013-10-03 03:26:00,71.8,70.2,30.03,NE,39,0.0,0.0,95,0.00,,---,0.00,VWS V14.01,2013-10-03 07:26:00,
2013-10-03 03:31:00,71.9,70.3,30.02,NE,39,0.0,0.0,95,0.00,,---,0.00,VWS V14.01,2013-10-03 07:31:00,
2013-10-03 03:36:00,71.7,70.2,30.02,NE,39,0.0,0.0,95,0.00,,---,0.00,VWS V14.01,2013-10-03 07:36:00,
2013-10-03 03:41:00,71.9,70.5,30.02,NE,39,0.0,0.0,95,0.00,,---,0.00,VWS V14.01,2013-10-03 07:41:00,
2013-10-03 03:46:00,71.2,69.8,30.02,NE,39,0.0,0.0,95,0.00,,---,0.00,VWS V14.01,2013-10-03 07:46:00,
2013-10-03 03:51:00,71.8,70.5,30.02,ENE,60,0.9,1.2,96,0.00,,---,0.00,VWS V14.01,2013-10-03 07:51:00,
2013-10-03 03:56:00,71.6,70.3,30.02,ENE,60,0.6,0.9,96,0.00,,---,0.00,VWS V14.01,2013-10-03 07:56:00,
2013-10-03 04:01:00,71.7,70.4,30.02,ENE,63,1.2,1.4,96,0.00,,---,0.00,VWS V14.01,2013-10-03 08:01:00,
2013-10-03 04:06:00,71.4,70.2,30.02,NE,52,0.0,0.0,96,0.00,,---,0.00,VWS V14.01,2013-10-03 08:06:00,
2013-10-03 04:11:00,71.5,70.4,30.02,ENE,68,1.2,1.2,96,0.00,,---,0.00,VWS V14.01,2013-10-03 08:11:00,
2013-10-03 04:16:00,71.2,70.1,30.02,NE,44,0.0,0.0,96,0.00,,---,0.00,VWS V14.01,2013-10-03 08:16:00,
2013-10-03 04:21:00,71.2,70.1,30.02,NE,44,0.0,0.0,96,0.00,,---,0.00,VWS V14.01,2013-10-03 08:21:00,
2013-10-03 04:26:00,70.9,69.8,30.02,ENE,63,0.6,0.8,96,0.00,,---,0.00,VWS V14.01,2013-10-03 08:26:00,
2013-10-03 04:31:00,71.5,70.5,30.02,NE,56,0.0,0.0,96,0.00,,---,0.00,VWS V14.01,2013-10-03 08:31:00,
2013-10-03 04:36:00,70.9,69.9,30.02,NE,56,0.0,0.0,97,0.00,,---,0.00,VWS V14.01,2013-10-03 08:36:00,
2013-10-03 04:41:00,71.1,70.2,30.01,NE,56,0.0,0.0,97,0.00,,---,0.00,VWS V14.01,2013-10-03 08:41:00,
2013-10-03 04:46:00,70.8,69.9,30.01,NE,56,0.0,0.0,97,0.00,,---,0.00,VWS V14.01,2013-10-03 08:46:00,
2013-10-03 04:51:00,71.0,70.1,30.01,NE,56,0.0,0.0,97,0.00,,---,0.00,VWS V14.01,2013-10-03 08:51:00,
2013-10-03 04:56:00,70.9,70.1,30.01,NE,56,0.0,0.0,97,0.00,,---,0.00,VWS V14.01,2013-10-03 08:56:00,
2013-10-03 05:01:00,71.1,70.3,30.01,NE,56,0.0,0.0,97,0.00,,---,0.00,VWS V14.01,2013-10-03 09:01:00,
2013-10-03 05:06:00,70.8,70.1,30.01,NE,56,0.0,0.0,98,0.00,,---,0.00,VWS V14.01,2013-10-03 09:06:00,
2013-10-03 05:11:00,69.9,69.2,30.01,NE,56,0.0,0.0,98,0.00,,---,0.00,VWS V14.01,2013-10-03 09:11:00,
2013-10-03 05:16:00,70.1,69.5,30.01,NE,56,0.0,0.0,98,0.00,,---,0.00,VWS V14.01,2013-10-03 09:16:00,
2013-10-03 05:21:00,70.3,69.7,30.01,NE,56,0.0,0.0,98,0.00,,---,0.00,VWS V14.01,2013-10-03 09:21:00,
2013-10-03 05:26:00,69.9,69.4,30.01,NE,56,0.0,0.0,98,0.00,,---,0.00,VWS V14.01,2013-10-03 09:26:00,
2013-10-03 05:31:00,70.6,70.1,30.01,ENE,58,2.0,2.2,98,0.00,,---,0.00,VWS V14.01,2013-10-03 09:31:00,
2013-10-03 05:36:00,70.5,70.1,30.01,NE,56,0.4,2.7,98,0.00,,---,0.00,VWS V14.01,2013-10-03 09:36:00,
2013-10-03 05:41:00,70.0,69.6,30.01,ENE,59,3.2,3.6,99,0.00,,---,0.00,VWS V14.01,2013-10-03 09:41:00,
2013-10-03 05:46:00,69.5,69.2,30.02,ENE,59,1.4,2.4,99,0.00,,---,0.00,VWS V14.01,2013-10-03 09:46:00,
2013-10-03 05:51:00,69.7,69.4,30.01,ENE,59,2.2,4.6,99,0.00,,---,0.00,VWS V14.01,2013-10-03 09:51:00,
2013-10-03 05:56:00,70.4,70.1,30.01,ENE,58,2.0,2.9,99,0.00,,---,0.00,VWS V14.01,2013-10-03 09:56:00,
2013-10-03 06:01:00,70.0,69.7,30.01,NE,48,0.6,0.7,99,0.00,,---,0.00,VWS V14.01,2013-10-03 10:01:00,
2013-10-03 06:06:00,69.4,69.1,30.01,ENE,59,1.9,2.0,99,0.00,,---,0.00,VWS V14.01,2013-10-03 10:06:00,
2013-10-03 06:11:00,69.9,69.6,30.01,NE,56,1.1,1.2,99,0.00,,---,0.00,VWS V14.01,2013-10-03 10:11:00,
2013-10-03 06:16:00,69.8,69.6,30.01,NE,52,0.0,0.0,99,0.00,,---,0.00,VWS V14.01,2013-10-03 10:16:00,
2013-10-03 06:21:00,69.8,69.6,30.01,NE,52,0.0,0.0,99,0.00,,---,0.00,VWS V14.01,2013-10-03 10:21:00,
2013-10-03 06:26:00,69.4,69.2,30.01,NE,34,0.0,1.1,99,0.00,,---,0.00,VWS V14.01,2013-10-03 10:26:00,
2013-10-03 06:31:00,69.7,69.5,30.01,ENE,59,1.4,2.1,99,0.00,,---,0.00,VWS V14.01,2013-10-03 10:31:00,
2013-10-03 06:36:00,69.9,69.8,30.02,ENE,59,1.3,2.1,100,0.00,,---,0.00,VWS V14.01,2013-10-03 10:36:00,
2013-10-03 06:41:00,69.6,69.4,30.02,NE,56,1.4,1.9,99,0.00,,---,0.00,VWS V14.01,2013-10-03 10:41:00,
2013-10-03 06:46:00,69.5,69.3,30.02,NE,48,0.0,0.0,99,0.00,,---,0.00,VWS V14.01,2013-10-03 10:46:00,
2013-10-03 06:51:00,69.3,69.1,30.02,NE,48,0.0,0.0,99,0.00,,---,0.00,VWS V14.01,2013-10-03 10:51:00,
2013-10-03 06:56:00,69.9,69.7,30.02,NE,48,0.0,0.0,99,0.00,,---,0.00,VWS V14.01,2013-10-03 10:56:00,
2013-10-03 07:01:00,68.7,68.5,30.02,NE,48,0.0,0.0,99,0.00,,---,0.00,VWS V14.01,2013-10-03 11:01:00,
2013-10-03 07:06:00,69.4,69.3,30.02,NE,53,0.9,0.9,100,0.00,,---,0.00,VWS V14.01,2013-10-03 11:06:00,
2013-10-03 07:11:00,68.5,68.4,30.02,ENE,58,2.5,2.7,100,0.00,,---,0.00,VWS V14.01,2013-10-03 11:11:00,
2013-10-03 07:16:00,69.5,69.4,30.03,ENE,58,1.5,1.7,100,0.00,,---,0.00,VWS V14.01,2013-10-03 11:16:00,
2013-10-03 07:21:00,69.5,69.4,30.03,ENE,66,1.1,1.1,100,0.00,,---,0.00,VWS V14.01,2013-10-03 11:21:00,
2013-10-03 07:26:00,69.5,69.5,30.03,ENE,59,2.8,2.8,100,0.00,,---,0.00,VWS V14.01,2013-10-03 11:26:00,
2013-10-03 07:31:00,69.0,69.0,30.03,ENE,58,1.7,2.5,100,0.00,,---,0.00,VWS V14.01,2013-10-03 11:31:00,
2013-10-03 07:36:00,69.5,69.5,30.03,ENE,58,1.4,2.2,100,0.00,,---,0.00,VWS V14.01,2013-10-03 11:36:00,
2013-10-03 07:41:00,69.4,69.4,30.03,ENE,60,2.7,2.7,100,0.00,,---,0.00,VWS V14.01,2013-10-03 11:41:00,
2013-10-03 07:46:00,69.1,69.1,30.03,ENE,58,2.0,2.5,100,0.00,,---,0.00,VWS V14.01,2013-10-03 11:46:00,
2013-10-03 07:51:00,69.4,69.4,30.03,NE,44,0.0,1.1,100,0.00,,---,0.00,VWS V14.01,2013-10-03 11:51:00,
2013-10-03 07:56:00,69.6,69.6,30.03,NE,35,0.0,0.0,100,0.00,,---,0.00,VWS V14.01,2013-10-03 11:56:00,
2013-10-03 08:01:00,69.8,69.8,30.04,NE,53,1.1,1.7,100,0.00,,---,0.00,VWS V14.01,2013-10-03 12:01:00,
2013-10-03 08:06:00,70.2,70.2,30.04,NE,52,0.0,0.0,100,0.00,,---,0.00,VWS V14.01,2013-10-03 12:06:00,
2013-10-03 08:11:00,69.5,69.5,30.04,NE,56,1.5,1.7,100,0.00,,---,0.00,VWS V14.01,2013-10-03 12:11:00,
2013-10-03 08:16:00,69.8,69.8,30.04,ENE,59,2.1,2.4,100,0.00,,---,0.00,VWS V14.01,2013-10-03 12:16:00,
2013-10-03 08:21:00,71.0,71.0,30.04,NE,55,2.1,3.6,100,0.00,,---,0.00,VWS V14.01,2013-10-03 12:21:00,
2013-10-03 08:26:00,71.0,71.0,30.05,NE,55,3.4,3.5,100,0.00,,---,0.00,VWS V14.01,2013-10-03 12:26:00,
2013-10-03 08:31:00,71.7,71.6,30.05,NE,52,1.9,2.2,100,0.00,,---,0.00,VWS V14.01,2013-10-03 12:31:00,
2013-10-03 08:36:00,71.0,70.8,30.05,NE,46,0.7,1.4,99,0.00,,---,0.00,VWS V14.01,2013-10-03 12:36:00,
2013-10-03 08:41:00,72.4,72.1,30.05,NE,39,0.0,0.0,99,0.00,,---,0.00,VWS V14.01,2013-10-03 12:41:00,
2013-10-03 08:46:00,72.7,72.3,30.05,NE,46,1.7,2.7,99,0.00,,---,0.00,VWS V14.01,2013-10-03 12:46:00,
2013-10-03 08:51:00,73.1,72.6,30.05,NE,45,1.1,1.9,98,0.00,,---,0.00,VWS V14.01,2013-10-03 12:51:00,
2013-10-03 08:56:00,72.8,72.2,30.06,NE,41,0.5,1.1,98,0.00,,---,0.00,VWS V14.01,2013-10-03 12:56:00,
2013-10-03 09:01:00,72.3,71.5,30.06,NE,39,0.5,1.7,97,0.00,,---,0.00,VWS V14.01,2013-10-03 13:01:00,
2013-10-03 09:06:00,73.9,73.0,30.06,NE,39,0.0,0.0,97,0.00,,---,0.00,VWS V14.01,2013-10-03 13:06:00,
2013-10-03 09:11:00,73.2,72.1,30.06,NE,41,0.0,0.0,96,0.00,,---,0.00,VWS V14.01,2013-10-03 13:11:00,
2013-10-03 09:16:00,73.9,72.6,30.06,NE,34,0.2,1.4,96,0.00,,---,0.00,VWS V14.01,2013-10-03 13:16:00,
2013-10-03 09:21:00,74.8,73.3,30.06,ENE,62,2.1,3.2,95,0.00,,---,0.00,VWS V14.01,2013-10-03 13:21:00,
2013-10-03 09:26:00,75.0,73.2,30.06,NE,42,0.0,0.0,94,0.00,,---,0.00,VWS V14.01,2013-10-03 13:26:00,
2013-10-03 09:31:00,75.9,73.7,30.07,NE,49,0.0,0.2,93,0.00,,---,0.00,VWS V14.01,2013-10-03 13:31:00,
2013-10-03 09:36:00,75.5,72.8,30.07,NNE,25,0.0,0.0,91,0.00,,---,0.00,VWS V14.01,2013-10-03 13:36:00,
2013-10-03 09:41:00,77.0,73.8,30.07,NE,44,0.7,0.7,90,0.00,,---,0.00,VWS V14.01,2013-10-03 13:41:00,
2013-10-03 09:46:00,76.8,72.7,30.07,NNE,24,3.5,5.5,87,0.00,,---,0.00,VWS V14.01,2013-10-03 13:46:00,
2013-10-03 09:50:00,77.9,73.3,30.07,NE,51,0.7,1.7,86,0.00,,---,0.00,VWS V14.01,2013-10-03 13:50:00,
2013-10-03 09:55:00,77.4,72.2,30.08,NNE,24,2.0,2.8,84,0.00,,---,0.00,VWS V14.01,2013-10-03 13:55:00,
2013-10-03 10:00:00,78.2,72.5,30.08,NE,53,0.3,0.9,83,0.00,,---,0.00,VWS V14.01,2013-10-03 14:00:00,
2013-10-03 10:05:00,79.1,73.0,30.08,East,84,2.9,5.3,82,0.00,,---,0.00,VWS V14.01,2013-10-03 14:05:00,
2013-10-03 10:10:00,79.1,72.6,30.08,ESE,104,1.9,1.9,81,0.00,,---,0.00,VWS V14.01,2013-10-03 14:10:00,
2013-10-03 10:15:00,79.3,72.7,30.08,ENE,65,3.3,3.3,80,0.00,,---,0.00,VWS V14.01,2013-10-03 14:15:00,
2013-10-03 10:20:00,80.2,72.9,30.08,NE,42,0.8,2.8,78,0.00,,---,0.00,VWS V14.01,2013-10-03 14:20:00,
2013-10-03 10:25:00,80.7,73.0,30.08,NNE,21,1.7,1.8,78,0.00,,---,0.00,VWS V14.01,2013-10-03 14:25:00,
2013-10-03 10:30:00,81.0,72.9,30.08,NNE,28,0.0,0.0,76,0.00,,---,0.00,VWS V14.01,2013-10-03 14:30:00,
2013-10-03 10:35:00,80.6,71.6,30.08,NNE,25,0.0,1.2,74,0.00,,---,0.00,VWS V14.01,2013-10-03 14:35:00,
2013-10-03 10:40:00,80.5,71.7,30.09,NE,46,1.9,2.3,74,0.00,,---,0.00,VWS V14.01,2013-10-03 14:40:00,
2013-10-03 10:45:00,81.5,72.3,30.08,East,82,0.2,0.6,74,0.00,,---,0.00,VWS V14.01,2013-10-03 14:45:00,
2013-10-03 10:50:00,81.9,72.1,30.08,NE,34,0.2,0.8,72,0.00,,---,0.00,VWS V14.01,2013-10-03 14:50:00,
2013-10-03 10:55:00,83.4,72.3,30.09,ESE,110,1.5,1.5,69,0.00,,---,0.00,VWS V14.01,2013-10-03 14:55:00,
2013-10-03 11:00:00,82.6,71.1,30.09,SE,136,8.4,8.4,68,0.00,,---,0.00,VWS V14.01,2013-10-03 15:00:00,
2013-10-03 11:05:00,84.4,72.5,30.09,SE,128,2.2,4.8,68,0.00,,---,0.00,VWS V14.01,2013-10-03 15:05:00,
2013-10-03 11:10:00,85.1,72.0,30.09,ESE,115,7.5,8.0,65,0.00,,---,0.00,VWS V14.01,2013-10-03 15:10:00,
2013-10-03 11:15:00,85.6,71.9,30.09,SE,125,1.4,1.4,64,0.00,,---,0.00,VWS V14.01,2013-10-03 15:15:00,
2013-10-03 11:20:00,85.6,71.5,30.09,East,97,2.4,4.5,63,0.00,,---,0.00,VWS V14.01,2013-10-03 15:20:00,
2013-10-03 11:25:00,85.9,71.8,30.08,NNE,24,0.0,0.0,63,0.00,,---,0.00,VWS V14.01,2013-10-03 15:25:00,
2013-10-03 11:30:00,85.7,71.2,30.08,NNE,17,4.9,5.6,62,0.00,,---,0.00,VWS V14.01,2013-10-03 15:30:00,
2013-10-03 11:35:00,84.5,70.6,30.08,North,11,0.2,0.8,63,0.00,,---,0.00,VWS V14.01,2013-10-03 15:35:00,
2013-10-03 11:40:00,84.5,69.7,30.08,East,87,1.8,1.8,61,0.00,,---,0.00,VWS V14.01,2013-10-03 15:40:00,
2013-10-03 11:45:00,85.4,70.5,30.08,East,93,0.2,0.5,61,0.00,,---,0.00,VWS V14.01,2013-10-03 15:45:00,
2013-10-03 11:50:00,85.4,69.8,30.08,North,1,0.6,0.6,60,0.00,,---,0.00,VWS V14.01,2013-10-03 15:50:00,
2013-10-03 11:55:00,85.2,69.6,30.08,SE,136,0.6,1.6,60,0.00,,---,0.00,VWS V14.01,2013-10-03 15:55:00,
2013-10-03 12:00:00,86.1,70.3,30.08,North,3,1.5,3.9,59,0.00,,---,0.00,VWS V14.01,2013-10-03 16:00:00,
2013-10-03 12:05:00,85.9,69.7,30.08,ESE,111,1.3,2.3,59,0.00,,---,0.00,VWS V14.01,2013-10-03 16:05:00,
2013-10-03 12:10:00,84.6,68.8,30.08,SSE,155,1.1,1.1,59,0.00,,---,0.00,VWS V14.01,2013-10-03 16:10:00,
2013-10-03 12:15:00,85.3,69.9,30.08,ESE,112,2.4,2.4,60,0.00,,---,0.00,VWS V14.01,2013-10-03 16:15:00,
2013-10-03 12:20:00,86.0,69.9,30.08,ENE,58,2.1,2.6,59,0.00,,---,0.00,VWS V14.01,2013-10-03 16:20:00,
2013-10-03 12:25:00,85.5,69.0,30.08,NNE,28,1.0,1.1,58,0.00,,---,0.00,VWS V14.01,2013-10-03 16:25:00,
2013-10-03 12:30:00,87.5,69.7,30.08,ENE,60,1.1,2.3,56,0.00,,---,0.00,VWS V14.01,2013-10-03 16:30:00,
2013-10-03 12:35:00,88.9,69.7,30.07,ESE,122,1.6,1.9,53,0.00,,---,0.00,VWS V14.01,2013-10-03 16:35:00,
2013-10-03 12:40:00,88.2,67.9,30.07,ESE,122,2.8,3.4,51,0.00,,---,0.00,VWS V14.01,2013-10-03 16:40:00,
2013-10-03 12:45:00,89.0,69.4,30.07,SE,132,0.8,1.4,52,0.00,,---,0.00,VWS V14.01,2013-10-03 16:45:00,
2013-10-03 12:50:00,88.8,69.3,30.07,East,96,0.8,0.9,53,0.00,,---,0.00,VWS V14.01,2013-10-03 16:50:00,
2013-10-03 12:55:00,87.8,67.8,30.07,SSE,153,3.1,3.1,52,0.00,,---,0.00,VWS V14.01,2013-10-03 16:55:00,
2013-10-03 13:00:00,88.7,69.3,30.06,SE,142,5.1,6.5,53,0.00,,---,0.00,VWS V14.01,2013-10-03 17:00:00,
2013-10-03 13:05:00,89.7,68.5,30.06,East,86,4.6,5.3,50,0.00,,---,0.00,VWS V14.01,2013-10-03 17:05:00,
2013-10-03 13:10:00,90.2,67.4,30.05,ESE,111,1.2,2.4,47,0.00,,---,0.00,VWS V14.01,2013-10-03 17:10:00,
2013-10-03 13:15:00,89.8,67.9,30.05,ENE,59,0.8,2.2,49,0.00,,---,0.00,VWS V14.01,2013-10-03 17:15:00,
2013-10-03 13:20:00,88.7,66.8,30.05,ENE,69,1.2,1.2,48,0.00,,---,0.00,VWS V14.01,2013-10-03 17:20:00,
2013-10-03 13:25:00,89.4,67.6,30.05,NNE,17,0.0,0.0,49,0.00,,---,0.00,VWS V14.01,2013-10-03 17:25:00,
2013-10-03 13:30:00,89.9,67.4,30.05,SE,143,4.3,5.8,48,0.00,,---,0.00,VWS V14.01,2013-10-03 17:30:00,
2013-10-03 13:35:00,88.8,66.5,30.05,ESE,104,3.0,3.3,48,0.00,,---,0.00,VWS V14.01,2013-10-03 17:35:00,
2013-10-03 13:40:00,88.4,66.3,30.05,ESE,118,1.0,1.0,48,0.00,,---,0.00,VWS V14.01,2013-10-03 17:40:00,
2013-10-03 13:45:00,88.4,66.9,30.04,SE,143,0.0,0.0,49,0.00,,---,0.00,VWS V14.01,2013-10-03 17:45:00,
2013-10-03 13:50:00,87.7,66.7,30.04,SE,127,0.0,0.0,50,0.00,,---,0.00,VWS V14.01,2013-10-03 17:50:00,
2013-10-03 13:55:00,88.6,67.9,30.04,NNE,28,0.0,0.0,50,0.00,,---,0.00,VWS V14.01,2013-10-03 17:55:00,
2013-10-03 14:00:00,89.3,67.8,30.04,NNE,31,0.0,0.0,49,0.00,,---,0.00,VWS V14.01,2013-10-03 18:00:00,
2013-10-03 14:05:00,89.9,67.5,30.03,ESE,107,3.5,4.3,48,0.00,,---,0.00,VWS V14.01,2013-10-03 18:05:00,
2013-10-03 14:10:00,90.7,67.2,30.03,ESE,118,2.2,2.2,46,0.00,,---,0.00,VWS V14.01,2013-10-03 18:10:00,
2013-10-03 14:15:00,91.1,66.5,30.03,NE,55,1.8,1.8,44,0.00,,---,0.00,VWS V14.01,2013-10-03 18:15:00,
2013-10-03 14:20:00,92.2,66.8,30.03,East,87,0.7,0.7,44,0.00,,---,0.00,VWS V14.01,2013-10-03 18:20:00,
2013-10-03 14:25:00,90.9,65.7,30.02,ESE,111,2.7,2.7,44,0.00,,---,0.00,VWS V14.01,2013-10-03 18:25:00,
2013-10-03 14:30:00,91.7,67.0,30.03,SE,131,2.8,2.8,44,0.00,,---,0.00,VWS V14.01,2013-10-03 18:30:00,
2013-10-03 14:35:00,91.7,65.6,30.03,NE,53,3.0,4.0,42,0.00,,---,0.00,VWS V14.01,2013-10-03 18:35:00,
2013-10-03 14:40:00,91.8,66.3,30.02,NE,51,2.1,2.8,43,0.00,,---,0.00,VWS V14.01,2013-10-03 18:40:00,
2013-10-03 14:45:00,90.7,66.3,30.02,SE,127,2.9,2.9,45,0.00,,---,0.00,VWS V14.01,2013-10-03 18:45:00,
2013-10-03 14:50:00,89.9,66.0,30.02,SE,139,4.2,6.6,45,0.00,,---,0.00,VWS V14.01,2013-10-03 18:50:00,
2013-10-03 14:55:00,90.0,66.7,30.02,North,1,2.2,3.7,46,0.00,,---,0.00,VWS V14.01,2013-10-03 18:55:00,
2013-10-03 15:00:00,90.4,66.2,30.02,SSE,150,3.7,7.5,45,0.00,,---,0.00,VWS V14.01,2013-10-03 19:00:00,
2013-10-03 15:05:00,92.0,67.1,30.02,NNE,32,0.0,3.6,44,0.00,,---,0.00,VWS V14.01,2013-10-03 19:05:00,
2013-10-03 15:10:00,91.8,66.8,30.02,ENE,70,1.6,7.5,44,0.00,,---,0.00,VWS V14.01,2013-10-03 19:10:00,
2013-10-03 15:15:00,91.3,66.5,30.01,East,90,2.3,3.0,44,0.00,,---,0.00,VWS V14.01,2013-10-03 19:15:00,
2013-10-03 15:20:00,91.7,66.4,30.01,SE,138,1.9,5.0,44,0.00,,---,0.00,VWS V14.01,2013-10-03 19:20:00,
2013-10-03 15:25:00,92.0,66.8,30.01,SE,128,0.5,5.7,44,0.00,,---,0.00,VWS V14.01,2013-10-03 19:25:00,
2013-10-03 15:30:00,91.4,64.8,30.01,ESE,120,0.9,5.2,42,0.00,,---,0.00,VWS V14.01,2013-10-03 19:30:00,
2013-10-03 15:35:00,92.2,66.4,30.01,SSE,167,3.4,8.3,43,0.00,,---,0.00,VWS V14.01,2013-10-03 19:35:00,
2013-10-03 15:40:00,91.4,64.9,30.00,SE,125,2.4,7.2,42,0.00,,---,0.00,VWS V14.01,2013-10-03 19:40:00,
2013-10-03 15:45:00,91.6,65.1,30.00,ESE,121,4.5,7.3,42,0.00,,---,0.00,VWS V14.01,2013-10-03 19:45:00,
2013-10-03 15:50:00,92.6,65.9,30.01,NNE,14,2.7,6.2,42,0.00,,---,0.00,VWS V14.01,2013-10-03 19:50:00,
2013-10-03 15:55:00,92.3,65.5,30.00,ESE,117,4.5,10.5,41,0.00,,---,0.00,VWS V14.01,2013-10-03 19:55:00,
2013-10-03 16:00:00,92.2,65.5,30.00,NE,39,0.0,1.2,42,0.00,,---,0.00,VWS V14.01,2013-10-03 20:00:00,
2013-10-03 16:05:00,91.9,64.9,30.00,NNE,14,0.0,0.0,41,0.00,,---,0.00,VWS V14.01,2013-10-03 20:05:00,
2013-10-03 16:10:00,92.6,65.1,30.00,ENE,60,0.3,5.0,40,0.00,,---,0.00,VWS V14.01,2013-10-03 20:10:00,
2013-10-03 16:15:00,92.1,65.6,30.00,SE,138,5.6,7.3,42,0.00,,---,0.00,VWS V14.01,2013-10-03 20:15:00,
2013-10-03 16:20:00,90.9,64.7,30.00,SSE,153,1.9,7.1,42,0.00,,---,0.00,VWS V14.01,2013-10-03 20:20:00,
2013-10-03 16:25:00,91.1,65.4,30.00,East,100,0.0,0.0,43,0.00,,---,0.00,VWS V14.01,2013-10-03 20:25:00,
2013-10-03 16:30:00,91.1,65.6,30.00,SSW,204,0.7,5.8,43,0.00,,---,0.00,VWS V14.01,2013-10-03 20:30:00,
2013-10-03 16:35:00,90.7,65.3,30.00,NE,41,1.6,4.5,43,0.00,,---,0.00,VWS V14.01,2013-10-03 20:35:00,
2013-10-03 16:40:00,90.2,65.4,30.00,ESE,108,3.9,6.0,44,0.00,,---,0.00,VWS V14.01,2013-10-03 20:40:00,
2013-10-03 16:45:00,90.0,64.7,30.00,East,91,0.9,1.8,43,0.00,,---,0.00,VWS V14.01,2013-10-03 20:45:00,
2013-10-03 16:50:00,90.2,65.7,30.00,ENE,60,5.5,6.7,44,0.00,,---,0.00,VWS V14.01,2013-10-03 20:50:00,
2013-10-03 16:55:00,89.9,66.2,30.00,East,84,2.8,6.0,46,0.00,,---,0.00,VWS V14.01,2013-10-03 20:55:00,
2013-10-03 17:00:00,89.3,65.9,30.00,ENE,75,2.2,5.3,46,0.00,,---,0.00,VWS V14.01,2013-10-03 21:00:00,
2013-10-03 17:05:00,88.4,65.1,30.00,SE,142,6.5,7.1,46,0.00,,---,0.00,VWS V14.01,2013-10-03 21:05:00,
2013-10-03 17:10:00,89.7,66.0,30.00,ESE,103,5.8,6.8,46,0.00,,---,0.00,VWS V14.01,2013-10-03 21:10:00,
2013-10-03 17:15:00,89.3,65.8,30.00,NE,53,0.0,5.0,46,0.00,,---,0.00,VWS V14.01,2013-10-03 21:15:00,
2013-10-03 17:20:00,88.5,65.4,30.00,SE,125,5.0,7.3,46,0.00,,---,0.00,VWS V14.01,2013-10-03 21:20:00,
2013-10-03 17:25:00,89.3,65.9,30.00,East,90,1.5,6.0,46,0.00,,---,0.00,VWS V14.01,2013-10-03 21:25:00,
2013-10-03 17:30:00,89.1,65.8,30.00,East,98,0.0,2.0,46,0.00,,---,0.00,VWS V14.01,2013-10-03 21:30:00,
2013-10-03 17:35:00,88.4,65.2,30.00,ESE,105,2.1,8.3,46,0.00,,---,0.00,VWS V14.01,2013-10-03 21:35:00,
2013-10-03 17:40:00,88.2,65.3,30.00,SSE,148,1.6,2.4,47,0.00,,---,0.00,VWS V14.01,2013-10-03 21:40:00,
2013-10-03 17:45:00,87.8,66.1,30.00,North,4,0.8,5.8,49,0.00,,---,0.00,VWS V14.01,2013-10-03 21:45:00,
2013-10-03 17:50:00,87.3,66.5,30.00,ENE,73,2.5,5.0,50,0.00,,---,0.00,VWS V14.01,2013-10-03 21:50:00,
2013-10-03 17:55:00,86.5,66.7,30.00,North,3,1.9,3.5,52,0.00,,---,0.00,VWS V14.01,2013-10-03 21:55:00,
2013-10-03 18:00:00,86.4,67.5,30.01,ENE,72,0.0,3.3,53,0.00,,---,0.00,VWS V14.01,2013-10-03 22:00:00,
2013-10-03 18:05:00,86.4,67.9,30.01,NNE,30,0.0,0.0,54,0.00,,---,0.00,VWS V14.01,2013-10-03 22:05:00,
2013-10-03 18:10:00,85.8,67.6,30.01,ENE,60,0.8,5.6,55,0.00,,---,0.00,VWS V14.01,2013-10-03 22:10:00,
2013-10-03 18:15:00,85.9,68.0,30.01,ESE,111,2.2,4.0,55,0.00,,---,0.00,VWS V14.01,2013-10-03 22:15:00,
2013-10-03 18:20:00,84.7,67.3,30.01,East,84,5.5,7.1,56,0.00,,---,0.00,VWS V14.01,2013-10-03 22:20:00,
2013-10-03 18:25:00,85.2,68.2,30.01,ESE,115,2.2,3.0,57,0.00,,---,0.00,VWS V14.01,2013-10-03 22:25:00,
2013-10-03 18:30:00,85.3,68.7,30.01,SE,129,1.6,6.3,58,0.00,,---,0.00,VWS V14.01,2013-10-03 22:30:00,
2013-10-03 18:35:00,83.7,67.2,30.01,NNE,30,3.0,8.6,58,0.00,,---,0.00,VWS V14.01,2013-10-03 22:35:00,
2013-10-03 18:40:00,84.5,68.3,30.01,SE,132,4.4,6.3,58,0.00,,---,0.00,VWS V14.01,2013-10-03 22:40:00,
2013-10-03 18:45:00,84.0,67.8,30.01,NNE,32,1.9,1.9,58,0.00,,---,0.00,VWS V14.01,2013-10-03 22:45:00,
2013-10-03 18:50:00,83.7,68.0,30.01,NNE,13,0.0,0.0,59,0.00,,---,0.00,VWS V14.01,2013-10-03 22:50:00,
2013-10-03 18:55:00,83.0,67.6,30.01,SE,134,0.8,4.5,60,0.00,,---,0.00,VWS V14.01,2013-10-03 22:55:00,
2013-10-03 19:00:00,82.6,67.4,30.02,East,82,0.0,0.0,60,0.00,,---,0.00,VWS V14.01,2013-10-03 23:00:00,
2013-10-03 19:05:00,83.3,68.4,30.02,ENE,69,1.9,1.9,61,0.00,,---,0.00,VWS V14.01,2013-10-03 23:05:00,
2013-10-03 19:10:00,83.1,68.6,30.02,SE,125,1.9,6.0,62,0.00,,---,0.00,VWS V14.01,2013-10-03 23:10:00,
2013-10-03 19:15:00,83.2,68.8,30.01,South,176,1.5,5.5,62,0.00,,---,0.00,VWS V14.01,2013-10-03 23:15:00,
2013-10-03 19:20:00,83.2,68.9,30.02,SE,143,0.9,2.6,62,0.00,,---,0.00,VWS V14.01,2013-10-03 23:20:00,
2013-10-03 19:25:00,83.0,68.8,30.01,NE,41,0.4,5.2,62,0.00,,---,0.00,VWS V14.01,2013-10-03 23:25:00,
2013-10-03 19:30:00,83.0,68.9,30.02,ESE,103,7.9,8.0,63,0.00,,---,0.00,VWS V14.01,2013-10-03 23:30:00,
2013-10-03 19:35:00,81.5,67.6,30.02,ESE,108,1.8,5.9,63,0.00,,---,0.00,VWS V14.01,2013-10-03 23:35:00,
2013-10-03 19:40:00,81.8,68.0,30.02,SE,124,0.0,1.2,63,0.00,,---,0.00,VWS V14.01,2013-10-03 23:40:00,
2013-10-03 19:45:00,82.4,69.0,30.02,SE,138,8.6,8.6,64,0.00,,---,0.00,VWS V14.01,2013-10-03 23:45:00,
2013-10-03 19:50:00,82.4,69.3,30.02,ESE,120,0.6,4.5,65,0.00,,---,0.00,VWS V14.01,2013-10-03 23:50:00,
2013-10-03 19:55:00,81.1,68.4,30.02,ESE,121,3.5,9.5,65,0.00,,---,0.00,VWS V14.01,2013-10-03 23:55:00,
2013-10-03 20:00:00,81.7,69.2,30.02,SE,127,1.0,5.8,66,0.00,,---,0.00,VWS V14.01,2013-10-04 00:00:00,
2013-10-03 20:05:00,81.4,69.1,30.03,ESE,112,3.5,4.2,66,0.00,,---,0.00,VWS V14.01,2013-10-04 00:05:00,
2013-10-03 20:10:00,81.5,69.4,30.03,East,97,1.7,3.6,67,0.00,,---,0.00,VWS V14.01,2013-10-04 00:10:00,
2013-10-03 20:15:00,81.6,69.7,30.03,SE,132,4.5,4.5,67,0.00,,---,0.00,VWS V14.01,2013-10-04 00:15:00,
2013-10-03 20:20:00,81.1,69.4,30.03,SE,143,3.0,5.2,68,0.00,,---,0.00,VWS V14.01,2013-10-04 00:20:00,
2013-10-03 20:25:00,80.4,68.8,30.04,East,86,2.5,4.3,68,0.00,,---,0.00,VWS V14.01,2013-10-04 00:25:00,
2013-10-03 20:30:00,81.1,69.7,30.04,NE,53,2.1,4.0,68,0.00,,---,0.00,VWS V14.01,2013-10-04 00:30:00,
2013-10-03 20:35:00,80.7,69.5,30.04,East,100,1.3,6.6,69,0.00,,---,0.00,VWS V14.01,2013-10-04 00:35:00,
2013-10-03 20:40:00,79.4,68.3,30.04,SE,125,6.3,6.4,69,0.00,,---,0.00,VWS V14.01,2013-10-04 00:40:00,
2013-10-03 20:45:00,80.5,69.4,30.04,SSE,149,2.6,3.8,69,0.00,,---,0.00,VWS V14.01,2013-10-04 00:45:00,
2013-10-03 20:50:00,80.6,69.6,30.04,ESE,118,4.8,5.1,69,0.00,,---,0.00,VWS V14.01,2013-10-04 00:50:00,
2013-10-03 20:55:00,79.4,68.5,30.05,SE,134,3.5,3.8,69,0.00,,---,0.00,VWS V14.01,2013-10-04 00:55:00,
2013-10-03 21:00:00,80.3,69.5,30.05,East,86,1.4,3.5,70,0.00,,---,0.00,VWS V14.01,2013-10-04 01:00:00,
2013-10-03 21:05:00,79.2,68.6,30.05,ENE,63,0.0,1.2,70,0.00,,---,0.00,VWS V14.01,2013-10-04 01:05:00,
2013-10-03 21:10:00,80.2,69.7,30.05,SE,128,1.6,4.3,70,0.00,,---,0.00,VWS V14.01,2013-10-04 01:10:00,
2013-10-03 21:15:00,80.2,69.9,30.05,ESE,112,3.5,3.5,71,0.00,,---,0.00,VWS V14.01,2013-10-04 01:15:00,
2013-10-03 21:20:00,79.7,69.5,30.05,ESE,104,0.0,0.0,71,0.00,,---,0.00,VWS V14.01,2013-10-04 01:20:00,
2013-10-03 21:25:00,79.8,69.7,30.05,SE,124,1.2,2.9,71,0.00,,---,0.00,VWS V14.01,2013-10-04 01:25:00,
2013-10-03 21:30:00,79.5,69.7,30.05,ESE,112,1.9,3.2,72,0.00,,---,0.00,VWS V14.01,2013-10-04 01:30:00,
2013-10-03 21:35:00,78.5,69.0,30.06,ESE,120,1.9,1.9,73,0.00,,---,0.00,VWS V14.01,2013-10-04 01:35:00,
2013-10-03 21:40:00,79.4,70.0,30.05,East,89,1.1,1.6,73,0.00,,---,0.00,VWS V14.01,2013-10-04 01:40:00,
2013-10-03 21:45:00,79.1,69.9,30.05,North,11,0.4,1.4,73,0.00,,---,0.00,VWS V14.01,2013-10-04 01:45:00,
2013-10-03 21:50:00,79.1,70.0,30.06,North,11,0.0,0.0,74,0.00,,---,0.00,VWS V14.01,2013-10-04 01:50:00,
2013-10-03 21:55:00,78.5,69.7,30.06,East,101,0.0,0.6,74,0.00,,---,0.00,VWS V14.01,2013-10-04 01:55:00,
2013-10-03 22:00:00,78.7,70.0,30.06,ENE,75,1.6,3.1,75,0.00,,---,0.00,VWS V14.01,2013-10-04 02:00:00,
2013-10-03 22:05:00,79.0,70.3,30.06,ENE,77,1.2,2.9,75,0.00,,---,0.00,VWS V14.01,2013-10-04 02:05:00,
2013-10-03 22:10:00,78.7,70.1,30.06,NE,49,0.0,0.0,75,0.00,,---,0.00,VWS V14.01,2013-10-04 02:10:00,
2013-10-03 22:15:00,77.8,69.3,30.07,ENE,66,0.0,0.0,75,0.00,,---,0.00,VWS V14.01,2013-10-04 02:15:00,
2013-10-03 22:20:00,77.8,69.5,30.06,East,79,1.5,1.6,76,0.00,,---,0.00,VWS V14.01,2013-10-04 02:20:00,
2013-10-03 22:25:00,78.8,70.6,30.06,NE,55,0.0,1.2,76,0.00,,---,0.00,VWS V14.01,2013-10-04 02:25:00,
2013-10-03 22:30:00,77.5,69.5,30.07,NE,55,0.0,0.0,76,0.00,,---,0.00,VWS V14.01,2013-10-04 02:30:00,
2013-10-03 22:35:00,78.3,70.5,30.07,NNE,27,0.0,1.9,77,0.00,,---,0.00,VWS V14.01,2013-10-04 02:35:00,
2013-10-03 22:40:00,77.1,69.5,30.07,East,82,0.0,0.0,77,0.00,,---,0.00,VWS V14.01,2013-10-04 02:40:00,
2013-10-03 22:45:00,77.4,70.0,30.06,SE,131,3.7,3.7,78,0.00,,---,0.00,VWS V14.01,2013-10-04 02:45:00,
2013-10-03 22:50:00,77.9,70.6,30.06,NE,35,0.0,0.4,78,0.00,,---,0.00,VWS V14.01,2013-10-04 02:50:00,
2013-10-03 22:55:00,78.0,70.8,30.06,NE,35,0.0,0.0,79,0.00,,---,0.00,VWS V14.01,2013-10-04 02:55:00,
2013-10-03 23:00:00,77.5,70.5,30.06,NE,48,0.0,1.0,79,0.00,,---,0.00,VWS V14.01,2013-10-04 03:00:00,
2013-10-03 23:05:00,76.1,69.3,30.07,NE,48,0.0,0.0,80,0.00,,---,0.00,VWS V14.01,2013-10-04 03:05:00,
2013-10-03 23:10:00,76.8,70.1,30.07,NNW,338,0.6,0.8,80,0.00,,---,0.00,VWS V14.01,2013-10-04 03:10:00,
2013-10-03 23:15:00,76.0,69.6,30.07,NNE,25,1.1,1.2,80,0.00,,---,0.00,VWS V14.01,2013-10-04 03:15:00,
2013-10-03 23:20:00,76.8,70.5,30.07,NNE,22,0.0,0.0,81,0.00,,---,0.00,VWS V14.01,2013-10-04 03:20:00,
2013-10-03 23:25:00,77.1,71.0,30.07,NNE,20,0.0,0.0,82,0.00,,---,0.00,VWS V14.01,2013-10-04 03:25:00,
2013-10-03 23:30:00,76.9,71.0,30.07,NNE,24,0.0,0.0,82,0.00,,---,0.00,VWS V14.01,2013-10-04 03:30:00,
2013-10-03 23:35:00,76.2,70.5,30.07,NNE,24,0.0,0.0,83,0.00,,---,0.00,VWS V14.01,2013-10-04 03:35:00,
2013-10-03 23:40:00,76.9,71.4,30.07,NNE,24,0.0,0.0,83,0.00,,---,0.00,VWS V14.01,2013-10-04 03:40:00,
2013-10-03 23:45:00,76.9,71.6,30.07,ENE,69,0.0,0.0,84,0.00,,---,0.00,VWS V14.01,2013-10-04 03:45:00,
2013-10-03 23:50:00,76.3,71.1,30.07,East,89,1.7,2.5,84,0.00,,---,0.00,VWS V14.01,2013-10-04 03:50:00,